No data was retrieved for https://query.yahooapis.com/v1/public/yql?q=select+%2A+from+weather.forecast+where+woeid%3D731260&format=xml&u=c



METAR rapporten vliegvelden

   
EHAM - Amsterdam
Gewijzigd: 17-11-2019 12:25
Helder  
Helder  
   Wind: varieert 1.9 km/h
Wind: varieert 1.9 km/h
Temperatuur: 8°C
Dauwpunt: 4°C
Vochtigheid: 76%
Barometer: 1012 hPa
Zicht: meer dan 10 km
Bewolking: Helder
EHAM 171125Z VRB01KT CAVOK 08/04 Q1012 NOSIG
EHBK - Maastricht
Gewijzigd: 17-11-2019 12:55
Gedeeltelijk bewolkt  
Gedeeltelijk bewolkt  
   Wind: NNO 9.3 km/h
Wind: NNO 9.3 km/h
Temperatuur: 5°C
Voelt als: 3°C
Dauwpunt: 2°C
Vochtigheid: 81%
Barometer: 1010 hPa
Bewolking: Gedeeltelijk bewolkt
Zicht: meer dan 10 km
Bewolking: Gedeeltelijk bewolkt
EHBK 171155Z AUTO 03005KT 360V060 9999 NSC 05/02 Q1010 NOSIG
ELLX - Luxemburg
Gewijzigd: 17-11-2019 12:50
Gedeeltelijk bewolkt  
Gedeeltelijk bewolkt  
   Wind: NNO 20.4 km/h
Wind: NNO 20.4 km/h
Temperatuur: 4°C
Voelt als: 0°C
Dauwpunt: 2°C
Vochtigheid: 87%
Barometer: 1007 hPa
Bewolking: Gedeeltelijk bewolkt
Zicht: 8 km
Bewolking: Gedeeltelijk bewolkt
ELLX 171150Z 03011KT 8000 NSC 04/02 Q1007 NOSIG
EDDL - Dusseldorf
Gewijzigd: 17-11-2019 12:50
Helder  
Helder  
   Wind: NNO 9.3 km/h
Wind: NNO 9.3 km/h
Temperatuur: 6°C
Voelt als: 4°C
Dauwpunt: 3°C
Vochtigheid: 81%
Barometer: 1010 hPa
Zicht: meer dan 10 km
Bewolking: Helder
EDDL 171150Z 02005KT 350V050 CAVOK 06/03 Q1010 NOSIG
  

Script ontwikkeld door  Saratoga-weather.org Aangepast voor de template door  Weerstation Leuven